Time,TemperatureF,DewpointF,PressureIn,WindDirection,WindDirectionDegrees,WindSpeedMPH,WindSpeedGustMPH,Humidity,HourlyPrecipIn,Conditions,Clouds,dailyrainin,SoftwareType,DateUTC
2013-05-02 00:05:00,48.2,41.3,30.38,ENE,78,0.0,0.0,77,0.00,,,0.00,Wunderground v.1.15,2013-05-02 04:05:00,
2013-05-02 00:10:00,47.9,41.4,30.38,ENE,78,0.0,0.0,78,0.00,,,0.00,Wunderground v.1.15,2013-05-02 04:10:00,
2013-05-02 00:20:00,47.4,40.9,30.38,ENE,78,0.0,0.0,78,0.00,,,0.00,Wunderground v.1.15,2013-05-02 04:20:00,
2013-05-02 00:25:00,47.3,41.1,30.38,ENE,78,0.0,0.0,79,0.00,,,0.00,Wunderground v.1.15,2013-05-02 04:25:00,
2013-05-02 00:30:00,47.0,40.8,30.38,ENE,78,0.0,0.0,79,0.00,,,0.00,Wunderground v.1.15,2013-05-02 04:30:00,
2013-05-02 00:35:00,46.7,40.5,30.38,ENE,78,0.0,0.0,79,0.00,,,0.00,Wunderground v.1.15,2013-05-02 04:35:00,
2013-05-02 00:40:00,46.5,41.0,30.38,ENE,78,0.0,0.0,81,0.00,,,0.00,Wunderground v.1.15,2013-05-02 04:40:00,
2013-05-02 00:50:00,46.2,41.3,30.38,ENE,78,0.0,0.0,83,0.00,,,0.00,Wunderground v.1.15,2013-05-02 04:50:00,
2013-05-02 00:55:00,46.1,40.9,30.38,ENE,78,0.0,0.0,82,0.00,,,0.00,Wunderground v.1.15,2013-05-02 04:55:00,
2013-05-02 01:05:00,46.0,40.8,30.38,ENE,78,0.0,0.0,82,0.00,,,0.00,Wunderground v.1.15,2013-05-02 05:05:00,
2013-05-02 01:10:00,45.8,40.9,30.38,ENE,78,0.0,0.0,83,0.00,,,0.00,Wunderground v.1.15,2013-05-02 05:10:00,
2013-05-02 01:20:00,45.5,40.6,30.38,ENE,78,0.0,0.0,83,0.00,,,0.00,Wunderground v.1.15,2013-05-02 05:20:00,
2013-05-02 01:25:00,45.4,40.8,30.38,ENE,78,0.0,0.0,84,0.00,,,0.00,Wunderground v.1.15,2013-05-02 05:25:00,
2013-05-02 01:35:00,45.1,40.9,30.37,ENE,78,0.0,0.0,85,0.00,,,0.00,Wunderground v.1.15,2013-05-02 05:35:00,
2013-05-02 01:40:00,44.9,40.7,30.37,ENE,78,0.0,0.0,85,0.00,,,0.00,Wunderground v.1.15,2013-05-02 05:40:00,
2013-05-02 01:50:00,44.6,40.4,30.37,ENE,78,0.0,0.0,85,0.00,,,0.00,Wunderground v.1.15,2013-05-02 05:50:00,
2013-05-02 01:55:00,44.6,40.4,30.37,ENE,78,0.0,0.0,85,0.00,,,0.00,Wunderground v.1.15,2013-05-02 05:55:00,
2013-05-02 02:05:00,44.3,40.1,30.36,ENE,78,0.0,0.0,85,0.00,,,0.00,Wunderground v.1.15,2013-05-02 06:05:00,
2013-05-02 02:15:00,44.1,39.9,30.36,ENE,78,0.0,0.0,85,0.00,,,0.00,Wunderground v.1.15,2013-05-02 06:15:00,
2013-05-02 02:20:00,43.9,39.7,30.36,ENE,78,0.0,0.0,85,0.00,,,0.00,Wunderground v.1.15,2013-05-02 06:20:00,
2013-05-02 02:25:00,43.9,40.0,30.36,ENE,78,0.0,0.0,86,0.00,,,0.00,Wunderground v.1.15,2013-05-02 06:25:00,
2013-05-02 02:35:00,43.8,40.2,30.36,ENE,78,0.0,0.0,87,0.00,,,0.00,Wunderground v.1.15,2013-05-02 06:35:00,
2013-05-02 02:40:00,43.6,40.0,30.36,ENE,78,0.0,0.0,87,0.00,,,0.00,Wunderground v.1.15,2013-05-02 06:40:00,
2013-05-02 02:50:00,43.5,39.9,30.36,ENE,78,0.0,0.0,87,0.00,,,0.00,Wunderground v.1.15,2013-05-02 06:50:00,
2013-05-02 03:00:00,43.5,39.9,30.34,ENE,78,0.0,0.0,87,0.00,,,0.00,Wunderground v.1.15,2013-05-02 07:00:00,
2013-05-02 03:05:00,43.5,39.9,30.34,ENE,78,0.0,0.0,87,0.00,,,0.00,Wunderground v.1.15,2013-05-02 07:05:00,
2013-05-02 03:15:00,43.6,40.0,30.34,ENE,78,0.0,0.0,87,0.00,,,0.00,Wunderground v.1.15,2013-05-02 07:15:00,
2013-05-02 03:20:00,43.6,40.0,30.34,ENE,78,0.0,0.0,87,0.00,,,0.00,Wunderground v.1.15,2013-05-02 07:20:00,
2013-05-02 03:30:00,43.6,40.0,30.34,ENE,78,0.0,0.0,87,0.00,,,0.00,Wunderground v.1.15,2013-05-02 07:30:00,
2013-05-02 03:35:00,43.5,39.6,30.34,ENE,78,0.0,0.0,86,0.00,,,0.00,Wunderground v.1.15,2013-05-02 07:35:00,
2013-05-02 03:45:00,43.3,39.4,30.34,ENE,78,0.0,0.0,86,0.00,,,0.00,Wunderground v.1.15,2013-05-02 07:45:00,
2013-05-02 03:50:00,43.3,39.4,30.34,ENE,78,0.0,0.0,86,0.00,,,0.00,Wunderground v.1.15,2013-05-02 07:50:00,
2013-05-02 03:55:00,43.2,39.3,30.34,ENE,78,0.0,0.0,86,0.00,,,0.00,Wunderground v.1.15,2013-05-02 07:55:00,
2013-05-02 04:05:00,43.1,39.5,30.34,ENE,78,0.0,0.0,87,0.00,,,0.00,Wunderground v.1.15,2013-05-02 08:05:00,
2013-05-02 04:15:00,42.8,39.2,30.34,ENE,78,0.0,0.0,87,0.00,,,0.00,Wunderground v.1.15,2013-05-02 08:15:00,
2013-05-02 04:20:00,42.6,39.0,30.34,ENE,78,0.0,0.0,87,0.00,,,0.00,Wunderground v.1.15,2013-05-02 08:20:00,
2013-05-02 04:30:00,42.5,38.9,30.34,ENE,78,0.0,0.0,87,0.00,,,0.00,Wunderground v.1.15,2013-05-02 08:30:00,
2013-05-02 04:35:00,42.5,39.2,30.34,ENE,78,0.0,0.0,88,0.00,,,0.00,Wunderground v.1.15,2013-05-02 08:35:00,
2013-05-02 04:45:00,42.2,38.9,30.34,ENE,78,0.0,0.0,88,0.00,,,0.00,Wunderground v.1.15,2013-05-02 08:45:00,
2013-05-02 04:50:00,42.1,38.8,30.34,ENE,78,0.0,0.0,88,0.00,,,0.00,Wunderground v.1.15,2013-05-02 08:50:00,
2013-05-02 05:00:00,42.1,39.1,30.34,ENE,78,0.0,0.0,89,0.00,,,0.00,Wunderground v.1.15,2013-05-02 09:00:00,
2013-05-02 05:05:00,41.9,38.6,30.34,ENE,78,0.0,0.0,88,0.00,,,0.00,Wunderground v.1.15,2013-05-02 09:05:00,
2013-05-02 05:15:00,41.8,38.5,30.34,ENE,78,0.0,0.0,88,0.00,,,0.00,Wunderground v.1.15,2013-05-02 09:15:00,
2013-05-02 05:20:00,41.6,38.3,30.34,ENE,78,0.0,0.0,88,0.00,,,0.00,Wunderground v.1.15,2013-05-02 09:20:00,
2013-05-02 05:30:00,41.5,38.2,30.34,ENE,78,0.0,0.0,88,0.00,,,0.00,Wunderground v.1.15,2013-05-02 09:30:00,
2013-05-02 05:35:00,41.3,38.0,30.34,ENE,78,0.0,0.0,88,0.00,,,0.00,Wunderground v.1.15,2013-05-02 09:35:00,
2013-05-02 05:40:00,41.2,37.9,30.34,ENE,78,0.0,0.0,88,0.00,,,0.00,Wunderground v.1.15,2013-05-02 09:40:00,
2013-05-02 05:50:00,40.9,37.9,30.35,ENE,78,0.0,0.0,89,0.00,,,0.00,Wunderground v.1.15,2013-05-02 09:50:00,
2013-05-02 06:00:00,40.8,37.8,30.35,ENE,78,0.0,0.0,89,0.00,,,0.00,Wunderground v.1.15,2013-05-02 10:00:00,
2013-05-02 06:05:00,40.6,37.9,30.35,ENE,78,0.0,0.0,90,0.00,,,0.00,Wunderground v.1.15,2013-05-02 10:05:00,
2013-05-02 06:15:00,40.5,37.8,30.35,ENE,78,0.0,0.0,90,0.00,,,0.00,Wunderground v.1.15,2013-05-02 10:15:00,
2013-05-02 06:20:00,40.6,37.9,30.35,ENE,78,0.0,0.0,90,0.00,,,0.00,Wunderground v.1.15,2013-05-02 10:20:00,
2013-05-02 06:30:00,40.6,37.9,30.35,ENE,78,0.0,0.0,90,0.00,,,0.00,Wunderground v.1.15,2013-05-02 10:30:00,
2013-05-02 06:35:00,40.8,38.4,30.35,ENE,78,0.0,0.0,91,0.00,,,0.00,Wunderground v.1.15,2013-05-02 10:35:00,
2013-05-02 06:45:00,40.9,38.5,30.36,ENE,78,0.0,0.0,91,0.00,,,0.00,Wunderground v.1.15,2013-05-02 10:45:00,
2013-05-02 06:50:00,41.1,38.7,30.36,ENE,78,0.0,0.0,91,0.00,,,0.00,Wunderground v.1.15,2013-05-02 10:50:00,
2013-05-02 07:00:00,41.3,38.9,30.36,ENE,78,0.0,0.0,91,0.00,,,0.00,Wunderground v.1.15,2013-05-02 11:00:00,
2013-05-02 07:05:00,41.5,39.1,30.36,ENE,78,0.0,0.0,91,0.00,,,0.00,Wunderground v.1.15,2013-05-02 11:05:00,
2013-05-02 07:15:00,42.3,40.1,30.37,ENE,78,0.0,0.0,92,0.00,,,0.00,Wunderground v.1.15,2013-05-02 11:15:00,
2013-05-02 07:20:00,43.1,40.9,30.37,ENE,78,0.0,0.0,92,0.00,,,0.00,Wunderground v.1.15,2013-05-02 11:20:00,
2013-05-02 07:30:00,44.3,41.6,30.37,ENE,78,0.0,0.0,90,0.00,,,0.00,Wunderground v.1.15,2013-05-02 11:30:00,
2013-05-02 07:35:00,45.1,42.1,30.37,ENE,78,0.0,0.0,89,0.00,,,0.00,Wunderground v.1.15,2013-05-02 11:35:00,
2013-05-02 07:45:00,46.7,43.0,30.37,ENE,78,0.0,0.0,87,0.00,,,0.00,Wunderground v.1.15,2013-05-02 11:45:00,
2013-05-02 07:50:00,47.7,43.4,30.37,ENE,78,0.0,0.0,85,0.00,,,0.00,Wunderground v.1.15,2013-05-02 11:50:00,
2013-05-02 08:00:00,49.6,43.4,30.36,ENE,78,0.0,0.0,79,0.00,,,0.00,Wunderground v.1.15,2013-05-02 12:00:00,
2013-05-02 08:05:00,50.4,43.1,30.36,ENE,78,0.0,0.0,76,0.00,,,0.00,Wunderground v.1.15,2013-05-02 12:05:00,
2013-05-02 08:15:00,51.4,43.0,30.36,ENE,78,0.0,0.0,73,0.00,,,0.00,Wunderground v.1.15,2013-05-02 12:15:00,
2013-05-02 08:20:00,52.0,43.3,30.36,ENE,78,0.0,0.0,72,0.00,,,0.00,Wunderground v.1.15,2013-05-02 12:20:00,
2013-05-02 08:30:00,53.5,43.2,30.36,ENE,78,0.0,0.0,68,0.00,,,0.00,Wunderground v.1.15,2013-05-02 12:30:00,
2013-05-02 08:35:00,53.9,43.6,30.36,ENE,78,0.0,0.0,68,0.00,,,0.00,Wunderground v.1.15,2013-05-02 12:35:00,
2013-05-02 08:45:00,55.1,43.5,30.36,ENE,78,0.0,0.0,65,0.00,,,0.00,Wunderground v.1.15,2013-05-02 12:45:00,
2013-05-02 08:50:00,55.7,44.1,30.36,ENE,78,0.0,0.0,65,0.00,,,0.00,Wunderground v.1.15,2013-05-02 12:50:00,
2013-05-02 09:00:00,56.7,43.4,30.36,WNW,286,0.0,0.0,61,0.00,,,0.00,Wunderground v.1.15,2013-05-02 13:00:00,
2013-05-02 09:10:00,58.4,45.0,30.36,WNW,284,0.0,0.0,61,0.00,,,0.00,Wunderground v.1.15,2013-05-02 13:10:00,
2013-05-02 09:15:00,59.2,44.9,30.36,WNW,284,0.0,0.0,59,0.00,,,0.00,Wunderground v.1.15,2013-05-02 13:15:00,
2013-05-02 09:25:00,60.7,44.4,30.36,NE,44,0.0,0.0,55,0.00,,,0.00,Wunderground v.1.15,2013-05-02 13:25:00,
2013-05-02 09:30:00,61.5,44.7,30.36,NE,44,0.0,0.0,54,0.00,,,0.00,Wunderground v.1.15,2013-05-02 13:30:00,
2013-05-02 09:40:00,62.4,44.5,30.36,NNW,333,0.0,1.0,52,0.00,,,0.00,Wunderground v.1.15,2013-05-02 13:40:00,
2013-05-02 09:45:00,63.1,43.1,30.35,NNW,333,1.0,1.0,48,0.00,,,0.00,Wunderground v.1.15,2013-05-02 13:45:00,
2013-05-02 09:55:00,64.7,43.4,30.35,SSW,204,0.0,1.0,46,0.00,,,0.00,Wunderground v.1.15,2013-05-02 13:55:00,
2013-05-02 10:00:00,65.8,43.9,30.35,SSW,204,0.0,0.0,45,0.00,,,0.00,Wunderground v.1.15,2013-05-02 14:00:00,
2013-05-02 10:10:00,67.3,42.1,30.35,SSW,204,0.0,0.0,40,0.00,,,0.00,Wunderground v.1.15,2013-05-02 14:10:00,
2013-05-02 10:15:00,67.8,43.9,30.35,SSW,204,0.0,0.0,42,0.00,,,0.00,Wunderground v.1.15,2013-05-02 14:15:00,
2013-05-02 10:25:00,68.9,41.5,30.35,NW,326,0.0,0.0,37,0.00,,,0.00,Wunderground v.1.15,2013-05-02 14:25:00,
2013-05-02 10:30:00,69.1,42.4,30.35,NNW,348,0.0,0.0,38,0.00,,,0.00,Wunderground v.1.15,2013-05-02 14:30:00,
2013-05-02 10:40:00,68.6,41.3,30.35,NNW,348,0.0,0.0,37,0.00,,,0.00,Wunderground v.1.15,2013-05-02 14:40:00,
2013-05-02 10:45:00,68.6,40.6,30.34,SSE,150,0.0,1.0,36,0.00,,,0.00,Wunderground v.1.15,2013-05-02 14:45:00,
2013-05-02 10:55:00,69.3,43.3,30.34,SSE,150,0.0,1.0,39,0.00,,,0.00,Wunderground v.1.15,2013-05-02 14:55:00,
2013-05-02 11:00:00,69.1,40.3,30.34,WSW,242,0.0,5.0,35,0.00,,,0.00,Wunderground v.1.15,2013-05-02 15:00:00,
2013-05-02 11:10:00,68.9,41.5,30.34,West,264,1.0,1.0,37,0.00,,,0.00,Wunderground v.1.15,2013-05-02 15:10:00,
2013-05-02 11:20:00,70.1,40.4,30.34,NNE,32,1.0,2.0,34,0.00,,,0.00,Wunderground v.1.15,2013-05-02 15:20:00,
2013-05-02 11:25:00,70.6,39.3,30.34,SW,214,1.0,3.0,32,0.00,,,0.00,Wunderground v.1.15,2013-05-02 15:25:00,
2013-05-02 11:35:00,71.1,38.9,30.33,SSE,163,1.0,2.0,31,0.00,,,0.00,Wunderground v.1.15,2013-05-02 15:35:00,
2013-05-02 11:45:00,71.1,37.2,30.33,SSW,194,1.0,1.0,29,0.00,,,0.00,Wunderground v.1.15,2013-05-02 15:45:00,
2013-05-02 11:50:00,71.1,41.3,30.33,SW,233,0.0,0.0,34,0.00,,,0.00,Wunderground v.1.15,2013-05-02 15:50:00,
2013-05-02 12:00:00,71.8,40.3,30.32,SE,144,2.0,2.0,32,0.00,,,0.00,Wunderground v.1.15,2013-05-02 16:00:00,
2013-05-02 12:05:00,72.5,39.3,30.32,ENE,75,1.0,2.0,30,0.00,,,0.00,Wunderground v.1.15,2013-05-02 16:05:00,
2013-05-02 12:10:00,73.0,38.0,30.32,South,182,0.0,0.0,28,0.00,,,0.00,Wunderground v.1.15,2013-05-02 16:10:00,
2013-05-02 12:20:00,73.5,39.3,30.31,ESE,114,1.0,2.0,29,0.00,,,0.00,Wunderground v.1.15,2013-05-02 16:20:00,
2013-05-02 12:30:00,73.9,38.7,30.30,NE,42,1.0,1.0,28,0.00,,,0.00,Wunderground v.1.15,2013-05-02 16:30:00,
2013-05-02 12:35:00,73.9,36.8,30.30,East,79,1.0,1.0,26,0.00,,,0.00,Wunderground v.1.15,2013-05-02 16:35:00,
2013-05-02 12:45:00,74.4,36.3,30.29,WSW,246,1.0,1.0,25,0.00,,,0.00,Wunderground v.1.15,2013-05-02 16:45:00,
2013-05-02 12:50:00,75.1,38.8,30.29,WSW,246,1.0,1.0,27,0.00,,,0.00,Wunderground v.1.15,2013-05-02 16:50:00,
2013-05-02 13:00:00,75.6,37.3,30.29,SSW,196,0.0,2.0,25,0.00,,,0.00,Wunderground v.1.15,2013-05-02 17:00:00,
2013-05-02 13:10:00,75.3,37.0,30.29,SSE,167,1.0,2.0,25,0.00,,,0.00,Wunderground v.1.15,2013-05-02 17:10:00,
2013-05-02 13:15:00,75.6,40.2,30.29,NNW,338,1.0,2.0,28,0.00,,,0.00,Wunderground v.1.15,2013-05-02 17:15:00,
2013-05-02 13:25:00,76.3,36.8,30.29,NNE,27,1.0,2.0,24,0.00,,,0.00,Wunderground v.1.15,2013-05-02 17:25:00,
2013-05-02 13:30:00,76.5,41.0,30.28,ESE,121,1.0,1.0,28,0.00,,,0.00,Wunderground v.1.15,2013-05-02 17:30:00,
2013-05-02 13:40:00,76.7,35.0,30.28,SSE,161,1.0,1.0,22,0.00,,,0.00,Wunderground v.1.15,2013-05-02 17:40:00,
2013-05-02 13:45:00,76.7,36.1,30.28,SSW,205,1.0,1.0,23,0.00,,,0.00,Wunderground v.1.15,2013-05-02 17:45:00,
2013-05-02 13:55:00,74.6,37.4,30.28,NE,54,1.0,2.0,26,0.00,,,0.00,Wunderground v.1.15,2013-05-02 17:55:00,
2013-05-02 14:00:00,75.4,35.0,30.28,North,360,1.0,1.0,23,0.00,,,0.00,Wunderground v.1.15,2013-05-02 18:00:00,
2013-05-02 14:10:00,77.0,36.3,30.28,SSE,167,1.0,1.0,23,0.00,,,0.00,Wunderground v.1.15,2013-05-02 18:10:00,
2013-05-02 14:15:00,78.6,41.8,30.26,NNE,16,2.0,3.0,27,0.00,,,0.00,Wunderground v.1.15,2013-05-02 18:15:00,
2013-05-02 14:25:00,80.3,43.3,30.26,NE,54,3.0,3.0,27,0.00,,,0.00,Wunderground v.1.15,2013-05-02 18:25:00,
2013-05-02 14:30:00,79.6,41.7,30.26,NNE,13,3.0,3.0,26,0.00,,,0.00,Wunderground v.1.15,2013-05-02 18:30:00,
2013-05-02 14:40:00,76.5,34.8,30.26,ESE,117,0.0,0.0,22,0.00,,,0.00,Wunderground v.1.15,2013-05-02 18:40:00,
2013-05-02 14:50:00,77.2,36.5,30.26,SSE,150,1.0,3.0,23,0.00,,,0.00,Wunderground v.1.15,2013-05-02 18:50:00,
2013-05-02 15:00:00,76.5,38.0,30.26,NNE,32,1.0,1.0,25,0.00,,,0.00,Wunderground v.1.15,2013-05-02 19:00:00,
2013-05-02 15:05:00,75.8,37.5,30.26,WNW,300,1.0,1.0,25,0.00,,,0.00,Wunderground v.1.15,2013-05-02 19:05:00,
2013-05-02 15:15:00,74.9,38.7,30.26,East,86,1.0,2.0,27,0.00,,,0.00,Wunderground v.1.15,2013-05-02 19:15:00,
2013-05-02 15:20:00,76.0,38.6,30.26,SE,137,1.0,1.0,26,0.00,,,0.00,Wunderground v.1.15,2013-05-02 19:20:00,
2013-05-02 15:30:00,78.1,40.4,30.25,SSE,154,1.0,2.0,26,0.00,,,0.00,Wunderground v.1.15,2013-05-02 19:30:00,
2013-05-02 15:35:00,78.3,38.5,30.25,ESE,103,1.0,5.0,24,0.00,,,0.00,Wunderground v.1.15,2013-05-02 19:35:00,
2013-05-02 15:45:00,79.2,40.3,30.24,North,9,3.0,3.0,25,0.00,,,0.00,Wunderground v.1.15,2013-05-02 19:45:00,
2013-05-02 15:50:00,79.2,40.3,30.24,East,90,2.0,2.0,25,0.00,,,0.00,Wunderground v.1.15,2013-05-02 19:50:00,
2013-05-02 16:00:00,77.9,39.2,30.24,East,88,1.0,3.0,25,0.00,,,0.00,Wunderground v.1.15,2013-05-02 20:00:00,
2013-05-02 16:10:00,77.7,40.1,30.24,SW,217,2.0,2.0,26,0.00,,,0.00,Wunderground v.1.15,2013-05-02 20:10:00,
2013-05-02 16:15:00,77.6,40.0,30.23,East,92,2.0,2.0,26,0.00,,,0.00,Wunderground v.1.15,2013-05-02 20:15:00,
2013-05-02 16:25:00,78.6,39.8,30.23,South,176,2.0,5.0,25,0.00,,,0.00,Wunderground v.1.15,2013-05-02 20:25:00,
2013-05-02 16:30:00,78.1,38.4,30.23,North,355,3.0,5.0,24,0.00,,,0.00,Wunderground v.1.15,2013-05-02 20:30:00,
2013-05-02 16:40:00,77.9,38.2,30.23,SSE,150,2.0,2.0,24,0.00,,,0.00,Wunderground v.1.15,2013-05-02 20:40:00,
2013-05-02 16:45:00,77.9,39.2,30.23,SSW,194,3.0,3.0,25,0.00,,,0.00,Wunderground v.1.15,2013-05-02 20:45:00,
2013-05-02 16:55:00,77.7,39.1,30.23,SW,223,0.0,1.0,25,0.00,,,0.00,Wunderground v.1.15,2013-05-02 20:55:00,
2013-05-02 17:00:00,77.2,39.6,30.23,South,187,1.0,2.0,26,0.00,,,0.00,Wunderground v.1.15,2013-05-02 21:00:00,
2013-05-02 17:10:00,76.5,38.0,30.23,SE,128,2.0,2.0,25,0.00,,,0.00,Wunderground v.1.15,2013-05-02 21:10:00,
2013-05-02 17:15:00,76.5,39.0,30.23,South,188,2.0,2.0,26,0.00,,,0.00,Wunderground v.1.15,2013-05-02 21:15:00,
2013-05-02 17:25:00,75.8,38.5,30.23,ESE,107,0.0,3.0,26,0.00,,,0.00,Wunderground v.1.15,2013-05-02 21:25:00,
2013-05-02 17:30:00,74.9,40.5,30.24,SSW,200,1.0,1.0,29,0.00,,,0.00,Wunderground v.1.15,2013-05-02 21:30:00,
2013-05-02 17:40:00,73.9,39.6,30.24,ESE,111,3.0,3.0,29,0.00,,,0.00,Wunderground v.1.15,2013-05-02 21:40:00,
2013-05-02 17:45:00,73.5,37.5,30.25,ENE,59,3.0,3.0,27,0.00,,,0.00,Wunderground v.1.15,2013-05-02 21:45:00,
2013-05-02 17:55:00,70.9,40.3,30.25,NNE,32,4.0,9.0,33,0.00,,,0.00,Wunderground v.1.15,2013-05-02 21:55:00,
2013-05-02 18:00:00,69.4,40.5,30.27,NNE,21,4.0,10.0,35,0.00,,,0.00,Wunderground v.1.15,2013-05-02 22:00:00,
2013-05-02 18:10:00,66.4,41.3,30.27,NE,36,4.0,4.0,40,0.00,,,0.00,Wunderground v.1.15,2013-05-02 22:10:00,
2013-05-02 18:15:00,65.3,41.0,30.29,North,355,3.0,6.0,41,0.00,,,0.00,Wunderground v.1.15,2013-05-02 22:15:00,
2013-05-02 18:25:00,63.2,39.7,30.29,NE,50,4.0,6.0,42,0.00,,,0.00,Wunderground v.1.15,2013-05-02 22:25:00,
2013-05-02 18:30:00,62.6,40.9,30.30,NNW,348,4.0,4.0,45,0.00,,,0.00,Wunderground v.1.15,2013-05-02 22:30:00,
2013-05-02 18:40:00,61.6,40.6,30.30,NE,49,3.0,3.0,46,0.00,,,0.00,Wunderground v.1.15,2013-05-02 22:40:00,
2013-05-02 18:45:00,61.0,41.2,30.31,North,5,3.0,3.0,48,0.00,,,0.00,Wunderground v.1.15,2013-05-02 22:45:00,
2013-05-02 18:55:00,59.9,41.2,30.31,NE,51,4.0,6.0,50,0.00,,,0.00,Wunderground v.1.15,2013-05-02 22:55:00,
2013-05-02 19:00:00,59.3,41.2,30.32,NE,43,4.0,4.0,51,0.00,,,0.00,Wunderground v.1.15,2013-05-02 23:00:00,
2013-05-02 19:10:00,58.4,41.3,30.32,ENE,58,3.0,3.0,53,0.00,,,0.00,Wunderground v.1.15,2013-05-02 23:10:00,
2013-05-02 19:15:00,58.1,40.6,30.32,NNE,26,3.0,3.0,52,0.00,,,0.00,Wunderground v.1.15,2013-05-02 23:15:00,
2013-05-02 19:25:00,57.2,39.7,30.32,ENE,63,3.0,4.0,52,0.00,,,0.00,Wunderground v.1.15,2013-05-02 23:25:00,
2013-05-02 19:30:00,56.9,39.4,30.32,NE,49,3.0,4.0,52,0.00,,,0.00,Wunderground v.1.15,2013-05-02 23:30:00,
2013-05-02 19:40:00,56.3,36.8,30.32,ENE,76,3.0,6.0,48,0.00,,,0.00,Wunderground v.1.15,2013-05-02 23:40:00,
2013-05-02 19:45:00,56.0,37.1,30.33,NE,44,3.0,6.0,49,0.00,,,0.00,Wunderground v.1.15,2013-05-02 23:45:00,
2013-05-02 19:55:00,55.4,36.5,30.33,ENE,57,3.0,3.0,49,0.00,,,0.00,Wunderground v.1.15,2013-05-02 23:55:00,
2013-05-02 20:05:00,54.8,34.9,30.35,NNE,31,3.0,6.0,47,0.00,,,0.00,Wunderground v.1.15,2013-05-03 00:05:00,
2013-05-02 20:10:00,54.4,35.1,30.35,NE,55,3.0,3.0,48,0.00,,,0.00,Wunderground v.1.15,2013-05-03 00:10:00,
2013-05-02 20:15:00,54.2,35.9,30.34,ENE,74,3.0,3.0,50,0.00,,,0.00,Wunderground v.1.15,2013-05-03 00:15:00,
2013-05-02 20:25:00,53.6,37.3,30.34,NNE,29,4.0,10.0,54,0.00,,,0.00,Wunderground v.1.15,2013-05-03 00:25:00,
2013-05-02 20:30:00,53.5,38.6,30.35,NE,44,3.0,4.0,57,0.00,,,0.00,Wunderground v.1.15,2013-05-03 00:30:00,
2013-05-02 20:40:00,53.1,38.7,30.35,NNE,30,4.0,4.0,58,0.00,,,0.00,Wunderground v.1.15,2013-05-03 00:40:00,
2013-05-02 20:45:00,52.9,39.8,30.36,NE,54,4.0,4.0,61,0.00,,,0.00,Wunderground v.1.15,2013-05-03 00:45:00,
2013-05-02 20:55:00,52.5,40.7,30.36,ENE,69,3.0,4.0,64,0.00,,,0.00,Wunderground v.1.15,2013-05-03 00:55:00,
2013-05-02 21:00:00,52.3,40.5,30.37,ENE,76,2.0,2.0,64,0.00,,,0.00,Wunderground v.1.15,2013-05-03 01:00:00,
2013-05-02 21:10:00,51.7,39.9,30.37,NE,39,3.0,3.0,64,0.00,,,0.00,Wunderground v.1.15,2013-05-03 01:10:00,
2013-05-02 21:15:00,51.4,39.6,30.38,ENE,59,3.0,3.0,64,0.00,,,0.00,Wunderground v.1.15,2013-05-03 01:15:00,
2013-05-02 21:25:00,51.0,38.8,30.38,NE,55,2.0,4.0,63,0.00,,,0.00,Wunderground v.1.15,2013-05-03 01:25:00,
2013-05-02 21:30:00,50.8,38.7,30.39,NE,49,2.0,3.0,63,0.00,,,0.00,Wunderground v.1.15,2013-05-03 01:30:00,
2013-05-02 21:40:00,50.7,37.7,30.39,NE,41,2.0,2.0,61,0.00,,,0.00,Wunderground v.1.15,2013-05-03 01:40:00,
2013-05-02 21:45:00,50.5,36.7,30.39,NE,45,2.0,2.0,59,0.00,,,0.00,Wunderground v.1.15,2013-05-03 01:45:00,
2013-05-02 21:55:00,50.2,36.4,30.39,NE,54,2.0,2.0,59,0.00,,,0.00,Wunderground v.1.15,2013-05-03 01:55:00,
2013-05-02 22:00:00,50.1,35.4,30.39,NE,50,1.0,1.0,57,0.00,,,0.00,Wunderground v.1.15,2013-05-03 02:00:00,
2013-05-02 22:05:00,49.9,35.7,30.39,NNW,344,1.0,1.0,58,0.00,,,0.00,Wunderground v.1.15,2013-05-03 02:05:00,
2013-05-02 22:15:00,49.8,35.2,30.39,East,79,2.0,3.0,57,0.00,,,0.00,Wunderground v.1.15,2013-05-03 02:15:00,
2013-05-02 22:20:00,49.8,35.2,30.39,ENE,60,1.0,1.0,57,0.00,,,0.00,Wunderground v.1.15,2013-05-03 02:20:00,
2013-05-02 22:30:00,49.6,35.4,30.39,North,11,1.0,1.0,58,0.00,,,0.00,Wunderground v.1.15,2013-05-03 02:30:00,
2013-05-02 22:35:00,49.5,35.3,30.39,East,101,1.0,1.0,58,0.00,,,0.00,Wunderground v.1.15,2013-05-03 02:35:00,
2013-05-02 22:45:00,49.4,35.2,30.39,East,84,1.0,1.0,58,0.00,,,0.00,Wunderground v.1.15,2013-05-03 02:45:00,
2013-05-02 22:50:00,49.4,36.1,30.39,East,84,0.0,0.0,60,0.00,,,0.00,Wunderground v.1.15,2013-05-03 02:50:00,
2013-05-02 23:00:00,49.2,36.3,30.38,SE,131,1.0,1.0,61,0.00,,,0.00,Wunderground v.1.15,2013-05-03 03:00:00,
2013-05-02 23:05:00,49.1,36.6,30.38,SE,131,0.0,1.0,62,0.00,,,0.00,Wunderground v.1.15,2013-05-03 03:05:00,
2013-05-02 23:15:00,48.9,38.4,30.38,North,351,0.0,0.0,67,0.00,,,0.00,Wunderground v.1.15,2013-05-03 03:15:00,
2013-05-02 23:20:00,48.6,37.7,30.38,NE,34,0.0,0.0,66,0.00,,,0.00,Wunderground v.1.15,2013-05-03 03:20:00,
2013-05-02 23:30:00,48.5,38.0,30.39,NNE,33,0.0,0.0,67,0.00,,,0.00,Wunderground v.1.15,2013-05-03 03:30:00,
2013-05-02 23:35:00,48.5,37.7,30.39,NNE,33,0.0,0.0,66,0.00,,,0.00,Wunderground v.1.15,2013-05-03 03:35:00,
2013-05-02 23:40:00,48.5,37.7,30.39,NNE,33,0.0,0.0,66,0.00,,,0.00,Wunderground v.1.15,2013-05-03 03:40:00,
2013-05-02 23:50:00,48.3,37.5,30.39,NNE,33,0.0,1.0,66,0.00,,,0.00,Wunderground v.1.15,2013-05-03 03:50:00,
2013-05-02 23:55:00,48.3,37.1,30.39,NNE,17,0.0,1.0,65,0.00,,,0.00,Wunderground v.1.15,2013-05-03 03:55:00,